Timeline UpdatesTrip UpdatesNews PostsPvt Posts♥♥Travel TipsAdmin PostsConv PostsFollowed PostsChat RequestsBlog PostsPNR Posts

Disclaimer
Search
 
 
Fri Oct 24, 2014 17:30:03 ISTHomeTrainsΣChainsAtlasPNRForumGalleryNewsFAQTripsMembersLoginFeedback
No Recent News for this Train
Other Trains in the News **new
Latest...
.
Mon Sep 01, 2014 (10:28PM)
⇐ Return Journey: Train# 15707

15708/Amrapali Express

Time-Table HAS CHANGED.
Sep 01 2014 (11:38PM)
Change Departure Station:
Change Arrival Station:
Post a Train Travel TipPost a Train Travel Tip **new
Post a Comment/Question/Picture/VideoPost a Comment/Question/Picture/Video
Pantry/Catering
✕ NO Pantry Car
✓ Catering Avbl
RSA - Rake Sharing
This train has 5 rakes in all, and has on-board cleaning system available. ; Charging points available in AC-2 tier, one in each coupe.
Rake/Coach Composition
LOCO«SLR-GN-GN-GN-GN-Gn-S9-S8-S7-S6-S5-S4-S3-S2-S1-B1-A1-GN-GN-GN-GN-SLR=22 Coach Train. S9 becomes S1 in UP train.
Loco
ASR-LKO> CNB WAP4 LKO-KIR> SGUJ WDP4
News    PNR    Forum    Time-Table    Availability    Fare Chart    Map    Arr/Dep History    Trips    Gallery    ΣChains    X/O    Timeline    
Travel Time: 24h 35m    25 halts    Distance: 1269 km    Avg Speed: 51 km/hr
Type: Mail/Express
Zone: NFR/Northeast Frontier
Departs @ 12:00 (Avg 1m late)
Platform# 6
SMTWTFS
Ambala Cantt. Junction/UMB 
Arrives @ 12:35 +1 night (Avg 3h 11m late)
Platform# 3
SMTWTFS
Muzaffarpur Junction/MFP 

25 halts. 203 intermediate Stations between Ambala Cantt. Junction and Muzaffarpur Junction

Show ALL intermediate Stations  Show Old Time-Table

#TrkCodeStation NameX/OArrivesAvgDepartsAvgHaltPFDay#KmSpeedElevZoneAddress
1/==/ASRAmritsar Junction (5)  -07:15+731-249.682233mNRAmritsar 143002, Punjab
2/==/JNLJandiala (2)X  07:29+1607:31+162m21-230.484238mNRJandiala, Punjab
3/==/BEASBeas Junction (2)  07:48+1807:50+182m21-206.561238mNRBeas, Punjab
4/==/KREKartarpur (2)X  08:11+1508:13+142m11-185.152236mNRKartarpur, Punjab
5/==/JUCJalandhar City Junction (5)X  08:30+1108:35+125m21-170.426239mNRJalandhar 144001, Punjab
6/==/JRCJalandhar Cantt. Junction (3)X  08:46+1008:48+102m21-165.665239mNRNear Rama Mandi, Punjab
7/==/PGWPhagwara Junction (3)X  09:03+1009:05+92m11-149.359245mNRPhagwara, Punjab
8/==/GRYGoraya (2)X  09:15+1009:17+92m11-139.469240mNRGoraya, Punjab
9/==/PHRPhillaur Junction (3)X  09:28+909:30+92m11-126.752246mNRPhillaur, Punjab
10/==/LDHLudhiana Junction (7)X  09:45+909:55+1210m11-113.657246mNRLudhiana 141001, Punjab
11/==/KNNKhanna (3)X  10:40+710:42+82m21-70.867269mNRNH 1, Punjab
12/==/SIRSirhind Junction (3)  10:58+511:00+62m21-52.988271mNRSirhind, Punjab
13/==/RPJRajpura Junction (3)11:18 11:17+611:20 11:19+62m21-28.147272mNRNH-1, Punjab
14/==/UMBAmbala Cantt. Junction (7)»  11:55-112:00+15m610.087278mNRAmbala 133001, Haryana
15/==/KUNKarnal (3)  12:56 12:52+1612:58 12:54+162m1175.271253mNRKarnal, Haryana
16/==/PNPPanipat Junction (5)  13:26 13:23+1313:28 13:25+132m11109.687235mNRPanipat, Haryana
17/==/SNPSonipat (3)X  14:00 13:56+1614:02 13:58+162m11154.762225mNRSonipat, Haryana
18/==/SZMDelhi Sabzi Mandi (2)  14:37+1914:39+202m--1195.17220mNRGulabi Bagh, Delhi NCT
19/==/DLIOld Delhi Junction (16)XO  15:05+1015:20+1115m111198.158219mNRNear Chandni Chowk Metro Station, Delhi NCT
20/==/KRJKhurja Junction (4)X16:45 16:46+1:1216:47 16:48+1:192m--1280.879199mNCRBulandshahr, Uttar Pradesh
21/==/ALJNAligarh Junction (4)X  17:11 17:21+1:5017:16 17:24+1:515 3m21324.346192mNCRAligarh, Uttar Pradesh
22/==/HRSHathras Junction (3)X  18:02 18:03+2:0018:04 18:05+2:002m21354.563183mNCRMahamaya Nagar(05722-242803), Uttar Pradesh
23/==/TDLTundla Junction (5)X  18:51+2:1918:56+2:225m--1402.555167mNCRDistt.Firozabad, Uttar Pradesh
24/==/FZDFirozabad (4)X  19:20 19:14+2:2819:22 19:16+2:312m21419.092164mNCRFirozabad, Uttar Pradesh
25/==/ETWEtawah (5)O  20:44 20:05+2:3320:46 20:07+2:372m31494.351154mNCRDistt. Etawah, Uttar Pradesh
26/==/CNBKanpur Central (10)X  22:45 22:50+2:0623:00+2:0815 10m--1633.647128mNCRKANPUR-208 001, Uttar Pradesh
27/==/ONUnnao Junction (5)X  23:21 23:22+2:1623:23 23:24+2:162m--1651.054129mNRUnnao, Uttar Pradesh
28/==/LKOLucknow Charbagh NR (9)X  00:25+2:1500:50+2:1425m12705.638123mNR226004, Uttar Pradesh
29/==/BBKBarabanki Junction (4)X  01:35+2:1201:37+2:122m--2734.262122mNRPin-225001, Uttar Pradesh
30/==%GDGonda Junction (3)X  02:55 03:03+2:2803:00 03:05+2:335 2m22823.567110mNERGonda 271001, Uttar Pradesh
31%==%MURMankapur Junction (5)03:21 03:30+2:1703:23 03:32+2:172m--2851.476104mNERDistrict Gonda, Uttar Pradesh
32%==%BSTBasti (4)  04:05 04:20+2:3104:10 04:25+2:325m--2911.98490mNERBasti 272001, Uttar Pradesh
33%==%KLDKhalilabad (3)X  04:31 04:46+2:3404:33 04:48+2:342m--2941.43686mNERKhalilabad- 272175, Uttar Pradesh
34%==%GKPGorakhpur Junction (10)X  05:45+2:1606:00+2:1715m72975.45684mNERGorakhpur 273001, Uttar Pradesh
35%==%DEOSDeoria Sadar (3)  06:46 06:53+2:5406:48 06:55+2:582m221024.55679mNERDeoria- 274001, Uttar Pradesh
36%==%SVSiwan Junction (4)  08:10+2:5908:15+3:015m121094.04170mNERSiwan, Bihar
37%==%CPRChhapra Junction (6)X  09:45+2:3010:05+2:3820m--21155.26458mNERDistt: Saran, Bihar
38/==/SEESonpur Junction (4)  10:56+3:1411:03+3:177m--21209.22556mECRSaran, Bihar
39/=-/HJPHajipur Junction (3)X  11:16+3:1211:18+3:282m--21214.74255mECR06224-272230, Bihar
40%==%MFPMuzaffarpur Junction (6)•  12:55 12:35+3:1113:05 12:40+3:1210 5m321268.67257mECRMuzaffarpur, Bihar
41/==/DOLDholi (2)  13:26 13:01+3:4613:28 13:03+3:482m--21293.767 ECRDistt. Muzaffarpur, Bihar
42/==/KRBPKhudiram B Pusa (2)X  13:40 13:15+3:5313:42 13:17+3:542m--21307.13652mECRDistt. Samastipur, Bihar
43/==/SPJSamastipur Junction (9)  14:05 13:40+3:5014:13 13:45+3:528 5m--21320.73055mECRSamastipur, Bihar
44/==/BJUBarauni Junction (9)  15:25+3:5415:35+3:5410m521371.24049mECRBegusarai, Bihar
45%--%BGSBegusarai (3)  15:55+4:0315:57+4:042m221384.75446mECRBegusarai, Bihar
46%==%KGGKhagaria Junction (3)  16:51 16:41+3:3716:53 16:43+3:402m221424.66643mECRKhagaria, Bihar
47|-=%MNEMansi Junction (4)  17:04 16:51+3:5917:06 16:53+4:012m--21433.46343mECRMansi, Bihar
48%==%THBThana Bihpur Junction (3)  18:08 17:33+4:1718:10 17:35+4:172m--21475.47339mECRThana Bihpur, Bihar
49%==%NNANaugachia (3)X  18:30 17:48+4:2218:32 17:50+4:222m121491.36237mECRBhagalpur, Bihar
50%-=%KUEKurselaX  18:56 18:08+4:2318:58 18:10+4:232m--21509.83931mECRNH 31, Bihar
51%==%CRRKaragola RoadX  19:28 18:36+4:1619:30 18:38+4:162m--21526.81536mECRLachhmipur, Bihar
52%--%KIRKatihar Junction (7)  20:10+2:44-121549.1-35mNFRKatihar 854105, Bihar
Scroll to Top
Scroll to Bottom